Latest Weather Observations for Cultana (Defence)

IDS60801

Issued at 11:51 am CDT Thursday 21 November 2019 (issued every 10 minutes, with the page automatically refreshed every 10 minutes)

About weather observations | Map of weather stations | Latest weather observations for SA | Other Formats
Station Details ID: 018229 Name: CULTANA (DEFENCE) Lat: -32.68 Lon: 137.37 Height: 171.0 m
Data from the previous 72 hours. | See also: Recent months at Cultana (Defence)
Date/Time
CDT
Temp
°C
App
Temp
°C
Dew
Point
°C
Rel
Hum
%
Delta-T
°C
Wind Press
QNH
hPa
Press
MSL
hPa
Rain since
9am
mm
Dir  Spd
km/h
Gust
km/h
Spd
kts
Gust
kts
21/11:30am 21.6 15.7 11.0 51 5.9 SW 33 46 18 25 - - 0.0
21/11:00am 21.4 15.1 11.1 52 5.7 SW 35 46 19 25 - - 0.0
21/10:30am 21.4 15.4 10.9 51 5.8 SW 33 44 18 24 - - 0.0
21/10:00am 21.4 15.7 11.1 52 5.7 SW 32 39 17 21 - - 0.0
21/09:30am 20.3 14.6 11.2 56 5.0 SW 32 43 17 23 - - 0.0
21/09:00am 18.8 13.0 11.4 62 4.1 SW 33 41 18 22 - - 0.0
21/08:30am 19.0 13.9 12.0 64 3.9 SW 30 39 16 21 - - 0.0
21/08:00am 18.4 13.8 12.2 67 3.5 SW 28 33 15 18 - - 0.0
21/07:30am 17.9 11.6 12.4 70 3.1 SW 37 48 20 26 - - 0.0
21/07:00am 17.8 12.4 12.7 72 2.9 WSW 33 46 18 25 - - 0.0
21/06:30am 17.7 10.7 12.6 72 2.9 SW 41 50 22 27 - - 0.0
21/06:00am 18.1 11.6 13.0 72 2.9 WSW 39 50 21 27 - - 0.0
21/05:36am 18.4 9.9 13.3 72 2.9 WSW 50 69 27 37 - - 0.0
21/05:30am 18.4 9.1 13.1 71 3.0 WSW 54 69 29 37 - - 0.0
21/05:00am 19.0 9.2 13.2 69 3.3 WSW 57 72 31 39 - - 0.0
21/04:51am 19.6 9.9 13.1 66 3.7 WSW 56 72 30 39 - - 0.0
21/04:30am 21.7 14.3 11.1 51 5.9 WSW 41 52 22 28 - - 0.0
21/04:00am 24.9 17.4 8.0 34 9.1 W 37 50 20 27 - - 0.0
21/03:38am 27.8 20.8 -0.3 16 13.2 WNW 26 52 14 28 - - 0.0
21/03:30am 28.7 21.2 -8.8 8 15.3 NNW 24 33 13 18 - - 0.0
21/03:00am 29.3 21.8 -8.3 8 15.6 NNE 24 32 13 17 - - 0.0
21/02:30am 29.4 22.8 -6.7 9 15.4 NNE 20 26 11 14 - - 0.0
21/02:00am 29.8 21.4 -6.4 9 15.6 NNE 30 35 16 19 - - 0.0
21/01:30am 30.2 21.8 -6.1 9 15.7 NNE 30 35 16 19 - - 0.0
21/01:00am 31.9 23.1 -6.4 8 16.8 NNE 32 39 17 21 - - 0.0
21/12:30am 32.4 23.6 -6.0 8 17.0 NNE 32 39 17 21 - - 0.0
21/12:00am 32.8 23.9 -7.5 7 17.4 N 32 37 17 20 - - 0.0
 
Date/Time
CDT
Temp
°C
App
Temp
°C
Dew
Point
°C
Rel
Hum
%
Delta-T
°C
Wind Press
QNH
hPa
Press
MSL
hPa
Rain since
9am
mm
Dir  Spd
km/h
Gust
km/h
Spd
kts
Gust
kts
20/11:30pm 33.3 25.5 -7.1 7 17.7 N 26 33 14 18 - - 0.0
20/11:00pm 34.5 26.8 -6.3 7 18.3 N 26 32 14 17 - - 0.0
20/10:30pm 35.8 27.3 -7.3 6 19.2 N 30 37 16 20 - - 0.0
20/10:00pm 36.2 27.7 -7.0 6 19.4 N 30 41 16 22 - - 0.0
20/09:30pm 37.0 28.2 -6.5 6 19.8 N 32 41 17 22 - - 0.0
20/09:00pm 37.5 29.1 -6.1 6 20.0 N 30 41 16 22 - - 0.0
20/08:30pm 38.1 28.4 -5.7 6 20.3 N 37 56 20 30 - - 0.0
20/08:00pm 38.8 28.5 -7.6 5 21.0 N 39 54 21 29 - - 0.0
20/07:38pm 39.3 28.7 -7.2 5 21.3 N 41 61 22 33 - - 0.0
20/07:30pm 39.5 28.3 -7.1 5 21.4 N 44 61 24 33 - - 0.0
20/07:11pm 39.9 28.0 -6.8 5 21.6 N 48 67 26 36 - - 0.0
20/07:00pm 40.2 28.7 -6.6 5 21.7 N 46 59 25 32 - - 0.0
20/06:42pm 40.5 29.4 -6.4 5 21.9 N 44 63 24 34 - - 0.0
20/06:30pm 40.8 29.0 -6.2 5 22.1 N 48 65 26 35 - - 0.0
20/06:13pm 41.0 29.2 -6.0 5 22.2 N 48 69 26 37 - - 0.0
20/06:00pm 41.5 30.5 -5.7 5 22.4 N 44 56 24 30 - - 0.0
20/05:57pm 41.1 29.3 -6.0 5 22.2 N 48 67 26 36 - - 0.0
20/05:30pm 42.2 30.8 -5.2 5 22.8 N 46 61 25 33 - - 0.0
20/05:05pm 42.0 29.5 -5.4 5 22.7 N 52 70 28 38 - - 0.0
20/05:00pm 42.1 30.3 -5.3 5 22.7 N 48 65 26 35 - - 0.0
20/04:31pm 41.7 29.5 -5.6 5 22.5 N 50 76 27 41 - - 0.0
20/04:30pm 41.9 29.8 -5.4 5 22.6 N 50 65 27 35 - - 0.0
20/04:00pm 42.1 29.6 -5.3 5 22.7 N 52 78 28 42 - - 0.0
20/03:54pm 42.6 30.1 -4.9 5 23.0 N 52 78 28 42 - - 0.0
20/03:53pm 42.6 30.1 -4.9 5 23.0 N 52 76 28 41 - - 0.0
20/03:30pm 41.9 28.0 -5.4 5 22.6 N 59 82 32 44 - - 0.0
20/03:00pm 41.9 29.4 -5.4 5 22.6 N 52 74 28 40 - - 0.0
20/02:30pm 42.1 28.8 -5.3 5 22.7 N 56 83 30 45 - - 0.0
20/02:00pm 42.7 30.6 -4.9 5 23.1 N 50 72 27 39 - - 0.0
20/01:33pm 42.0 29.9 -5.4 5 22.7 N 50 70 27 38 - - 0.0
20/01:30pm 42.0 29.1 -5.4 5 22.7 N 54 69 29 37 - - 0.0
20/01:10pm 41.2 29.0 -5.9 5 22.3 N 50 69 27 37 - - 0.0
20/01:00pm 41.1 28.1 -6.0 5 22.2 N 54 69 29 37 - - 0.0
20/12:30pm 40.6 27.6 -6.3 5 21.9 N 54 72 29 39 - - 0.0
20/12:19pm 40.8 29.3 -6.2 5 22.1 N 46 65 25 35 - - 0.0
20/12:00pm 40.1 27.8 -6.7 5 21.7 N 50 65 27 35 - - 0.0
20/11:30am 40.0 28.1 -6.7 5 21.6 N 48 61 26 33 - - 0.0
20/11:03am 39.4 28.2 -7.2 5 21.3 N 44 63 24 34 - - 0.0
20/11:00am 39.1 28.1 -5.0 6 20.8 N 44 59 24 32 - - 0.0
20/10:30am 37.1 28.3 -4.4 7 19.5 N 33 43 18 23 - - 0.0
20/10:00am 36.4 27.7 -4.9 7 19.2 N 32 43 17 23 - - 0.0
20/09:30am 34.2 27.2 -3.2 9 17.6 N 24 32 13 17 - - 0.0
20/09:00am 32.4 24.7 -3.1 10 16.5 NNE 28 33 15 18 - - 0.0
20/08:30am 31.5 23.7 -3.8 10 16.1 NNE 28 35 15 19 - - 0.0
20/08:00am 28.9 21.7 0.6 16 13.7 NNE 28 35 15 19 - - 0.0
20/07:30am 28.1 20.4 -0.1 16 13.4 NNE 30 37 16 20 - - 0.0
20/07:00am 27.1 19.6 1.5 19 12.4 NNE 30 35 16 19 - - 0.0
20/06:30am 26.2 18.4 2.8 22 11.5 NNE 33 41 18 22 - - 0.0
20/06:00am 26.8 20.2 2.0 20 12.1 NNE 26 30 14 16 - - 0.0
20/05:30am 25.7 19.6 3.0 23 11.2 NNE 24 28 13 15 - - 0.0
20/05:00am 24.7 19.3 4.5 27 10.2 N 22 24 12 13 - - 0.0
20/04:30am 25.3 19.8 3.9 25 10.7 NNE 22 24 12 13 - - 0.0
20/04:00am 24.5 19.5 4.8 28 9.9 NNE 20 24 11 13 - - 0.0
20/03:30am 24.2 19.6 6.5 32 9.2 NE 20 20 11 11 - - 0.0
20/03:00am 23.2 19.3 5.2 31 9.1 NNE 15 22 8 12 - - 0.0
20/02:30am 24.7 21.1 5.0 28 10.0 NE 13 15 7 8 - - 0.0
20/02:00am 25.5 21.6 3.5 24 10.9 ENE 13 20 7 11 - - 0.0
20/01:30am 26.4 20.7 3.0 22 11.6 E 22 24 12 13 - - 0.0
20/01:00am 25.0 20.2 5.7 29 9.9 ESE 20 24 11 13 - - 0.0
20/12:30am 25.3 21.2 6.0 29 10.0 SE 17 24 9 13 - - 0.0
20/12:00am 23.9 20.1 9.1 39 8.0 SE 19 24 10 13 - - 0.0
 
Date/Time
CDT
Temp
°C
App
Temp
°C
Dew
Point
°C
Rel
Hum
%
Delta-T
°C
Wind Press
QNH
hPa
Press
MSL
hPa
Rain since
9am
mm
Dir  Spd
km/h
Gust
km/h
Spd
kts
Gust
kts
19/11:30pm 24.6 20.3 7.7 34 9.0 SE 20 24 11 13 - - 0.0
19/11:00pm 24.9 20.6 8.0 34 9.1 SSE 20 24 11 13 - - 0.0
19/10:30pm 26.4 21.8 6.4 28 10.5 SE 20 26 11 14 - - 0.0
19/10:00pm 27.3 22.1 2.4 20 12.3 SSE 19 24 10 13 - - 0.0
19/09:30pm 27.6 23.3 3.3 21 12.2 S 15 17 8 9 - - 0.0
19/09:00pm 29.4 23.7 2.6 18 13.4 SSE 22 26 12 14 - - 0.0
19/08:30pm 29.8 24.8 3.7 19 13.4 SSE 19 24 10 13 - - 0.0
19/08:00pm 31.1 25.3 2.3 16 14.5 SSE 22 28 12 15 - - 0.0
19/07:30pm 32.1 26.1 3.1 16 14.9 SE 24 32 13 17 - - 0.0
19/07:00pm 33.3 26.7 2.2 14 15.9 SE 26 33 14 18 - - 0.0
19/06:30pm 34.3 27.1 3.0 14 16.3 SE 30 35 16 19 - - 0.0
19/06:00pm 34.8 27.7 3.4 14 16.5 SE 30 39 16 21 - - 0.0
19/05:30pm 34.8 27.9 4.4 15 16.2 SSE 30 37 16 20 - - 0.0
19/05:00pm 34.7 28.1 6.1 17 15.7 SSE 30 37 16 20 - - 0.0
19/04:30pm 34.6 28.9 8.4 20 14.9 SSE 28 37 15 20 - - 0.0
19/04:00pm 34.3 28.7 10.2 23 14.0 SSE 30 37 16 20 - - 0.0
19/03:30pm 37.0 33.1 7.0 16 16.8 SE 17 28 9 15 - - 0.0
19/03:00pm 36.1 31.7 8.8 19 15.7 SE 22 30 12 16 - - 0.0
19/02:30pm 36.3 31.1 9.0 19 15.7 SE 26 33 14 18 - - 0.0
19/02:00pm 35.3 31.5 9.7 21 14.9 SE 20 35 11 19 - - 0.0
19/01:30pm 35.8 31.9 8.6 19 15.6 SE 19 26 10 14 - - 0.0
19/01:00pm 36.2 31.9 -1.7 9 18.5 ENE 11 19 6 10 - - 0.0
19/12:30pm 36.7 33.0 0.1 10 18.4 NNE 9 17 5 9 - - 0.0
19/12:00pm 34.1 31.1 0.7 12 16.7 SSW 6 13 3 7 - - 0.0
19/11:30am 33.1 30.8 3.0 15 15.5 N 4 9 2 5 - - 0.0
19/11:00am 31.3 28.7 3.4 17 14.3 WNW 6 11 3 6 - - 0.0
19/10:30am 29.7 27.5 5.1 21 12.9 ENE 6 9 3 5 - - 0.0
19/10:00am 28.0 25.5 6.7 26 11.4 ENE 9 15 5 8 - - 0.0
19/09:30am 26.6 24.1 6.6 28 10.6 E 9 13 5 7 - - 0.0
19/09:00am 24.8 22.7 8.3 35 8.9 SE 9 13 5 7 - - 0.0
19/08:30am 23.1 21.7 10.9 46 6.8 SSE 9 13 5 7 - - 0.0
19/08:00am 21.3 19.8 11.9 55 5.3 SSE 11 17 6 9 - - 0.0
19/07:30am 19.8 16.9 12.3 62 4.2 SSE 19 24 10 13 - - 0.0
19/07:00am 18.6 16.3 11.9 65 3.7 SSE 15 17 8 9 - - 0.0
19/06:30am 17.6 14.8 11.2 66 3.5 S 17 19 9 10 - - 0.0
19/06:00am 17.7 14.6 10.3 62 4.0 S 17 19 9 10 - - 0.0
19/05:30am 18.4 14.9 7.2 48 5.7 S 15 19 8 10 - - 0.0
19/05:00am 19.3 16.3 6.1 42 6.6 S 11 11 6 6 - - 0.0
19/04:30am 20.4 17.8 4.4 35 7.8 S 7 7 4 4 - - 0.0
19/04:00am 21.7 18.0 2.4 28 9.1 S 11 13 6 7 - - 0.0
19/03:30am 22.7 18.5 1.7 25 9.9 SSE 13 15 7 8 - - 0.0
19/03:00am 24.3 19.6 1.2 22 10.9 SSE 15 17 8 9 - - 0.0
19/02:30am 25.2 20.9 1.3 21 11.4 SE 13 13 7 7 - - 0.0
19/02:00am 25.6 20.9 1.0 20 11.7 SE 15 17 8 9 - - 0.0
19/01:30am 25.4 21.0 0.1 19 11.8 SSE 13 15 7 8 - - 0.0
19/01:00am 25.3 19.9 -4.1 14 12.7 S 15 17 8 9 - - 0.0
19/12:30am 25.5 19.7 -4.9 13 12.9 SW 17 20 9 11 - - 0.0
19/12:00am 26.9 20.6 -6.0 11 13.9 W 19 22 10 12 - - 0.0
 
Date/Time
CDT
Temp
°C
App
Temp
°C
Dew
Point
°C
Rel
Hum
%
Delta-T
°C
Wind Press
QNH
hPa
Press
MSL
hPa
Rain since
9am
mm
Dir  Spd
km/h
Gust
km/h
Spd
kts
Gust
kts
18/11:30pm 27.5 22.1 -8.2 9 14.6 W 13 17 7 9 - - 0.0
18/11:00pm 28.8 23.5 -7.2 9 15.1 W 13 17 7 9 - - 0.0
18/10:30pm 26.8 21.8 -8.7 9 14.3 W 11 17 6 9 - - 0.0
18/10:00pm 29.6 22.9 -8.1 8 15.7 NNW 20 22 11 12 - - 0.0
18/09:30pm 30.6 23.6 -7.4 8 16.2 NNW 22 26 12 14 - - 0.0
18/09:00pm 30.9 24.9 -7.1 8 16.3 NNW 17 20 9 11 - - 0.0
18/08:30pm 31.8 25.7 -8.2 7 17.0 NNW 17 20 9 11 - - 0.0
18/08:00pm 33.2 26.8 -7.2 7 17.6 NNW 19 20 10 11 - - 0.0
18/07:30pm 34.8 28.3 -8.0 6 18.7 NNW 19 24 10 13 - - 0.0
18/07:00pm 35.7 29.2 -7.4 6 19.1 NNW 19 24 10 13 - - 0.0
18/06:30pm 36.2 29.8 -7.0 6 19.4 WNW 19 28 10 15 - - 0.0
18/06:00pm 36.5 30.1 -6.8 6 19.5 WNW 19 30 10 16 - - 0.0
18/05:30pm 36.5 29.5 -6.8 6 19.5 W 22 33 12 18 - - 0.0
18/05:00pm 36.6 30.8 -4.7 7 19.3 NW 17 30 9 16 - - 0.0
18/04:30pm 36.3 29.9 -5.0 7 19.1 NW 20 32 11 17 - - 0.0
18/04:00pm 36.6 30.8 -4.7 7 19.3 WNW 17 41 9 22 - - 0.0
18/03:30pm 35.4 30.5 -3.8 8 18.4 NW 13 33 7 18 - - 0.0
18/03:00pm 35.2 30.2 -4.0 8 18.3 WNW 13 24 7 13 - - 0.0
18/02:30pm 35.3 27.7 -5.7 7 18.6 W 26 35 14 19 - - 0.0
18/02:00pm 34.4 28.0 -4.6 8 17.9 NW 20 33 11 18 - - 0.0
18/01:30pm 33.6 27.5 -3.6 9 17.3 W 19 30 10 16 - - 0.0
18/01:00pm 33.0 26.9 -4.0 9 17.0 NW 19 32 10 17 - - 0.0
18/12:30pm 32.4 26.4 -1.8 11 16.2 N 20 33 11 18 - - 0.0
18/12:00pm 31.7 26.1 -0.1 13 15.5 N 19 33 10 18 - - 0.0

Other formats

Comma delimited format used in spreadsheet applications
http://www.bom.gov.au/fwo/IDS60801/IDS60801.95683.axf

JavaScript Object Notation format (JSON) in row-major order
http://www.bom.gov.au/fwo/IDS60801/IDS60801.95683.json

Data quality

Most of these data are generated automatically and are frequently updated. Quality checks on data are not normally performed. It is possible for incorrect values to appear. Refer to information at About Latest Weather Observations and please check the disclaimer before using these data.